Terminal Aerodrome Forecast
Issued by NWS Wakefield, VA

Home | Current Version | Previous Version | Text Only | Print | Product List | Glossary On
Versions: 1 2 3 4 5 6 7 8 9 10 11 12 13 14 15 16 17 18 19 20 21 22 23 24 25 26 27 28 29
000
FTUS41 KAKQ 311723
TAFRIC
TAF
KRIC 311723Z 3118/0118 05004KT P6SM SCT030 BKN045
     FM312200 09003KT P6SM SCT040 BKN250
     FM010900 VRB02KT 3SM BR BKN025
     FM011300 06005KT P6SM BKN050=

USA.gov is the U.S. government's official web portal to all federal, state and local government web resources and services.